La Grande, Canada
Current Conditions -  °F | °C
As of 11:00 AM on Friday 31 Oct 2014 (Local Time) from CYGL Reporting Station
Broken Clouds Broken Clouds  
Wind Chill: 20°   Ceiling: 24000
Heat Index: 28°   Visibility: 15mi
Dew Point: 27°   Wind: 8mph
Humidity: 93%   Direction: 320°NW
Pressure: 30.1"   Gusts: NA
Location:  53.63°N, 77.7°W
Report Text: CYGL 311500Z 32007KT 15SM FEW008 SCT035 BKN240 M02/M03 A3010 RMK SF1SC3CI2 SLP208
Loading
Personal Weather Stations






























Interactive Weather Map
Tropical Storm Tracking
New forecast layout! Learn more

10-Day Weather Forecast

Advertisements
Track Severe Weather on mobile